Time;durP1;ratioP1;P1;durP2;ratioP2;P2;SDS_P1;SDS_P2;PMS_P1;PMS_P2;Temp;Humidity;BMP_temperature;BMP_pressure;BME280_temperature;BME280_humidity;BME280_pressure;Samples;Min_cycle;Max_cycle;Signal;HPM_P1;HPM_P2
2022/04/20 00:01:11;;;;;;;6.63;4.20;;;8.70;99.90;;;;;;5012584;28;20041;-72
2022/04/20 00:03:38;;;;;;;6.90;4.30;;;8.70;99.90;;;;;;5032179;28;20492;-73
2022/04/20 00:06:05;;;;;;;5.25;4.30;;;8.70;99.90;;;;;;5028234;28;20385;-73
2022/04/20 00:08:32;;;;;;;5.97;3.85;;;8.60;99.90;;;;;;5032724;28;20510;-72
2022/04/20 00:11:01;;;;;;;9.35;4.50;;;8.60;99.90;;;;;;5034535;28;20581;-72
2022/04/20 00:13:27;;;;;;;5.65;4.60;;;8.50;99.90;;;;;;5028931;28;20440;-72
2022/04/20 00:15:53;;;;;;;6.38;3.90;;;8.50;99.90;;;;;;5030161;28;20389;-73
2022/04/20 00:18:19;;;;;;;6.65;4.38;;;8.40;99.90;;;;;;5031315;28;20052;-72
2022/04/20 00:20:44;;;;;;;7.15;4.68;;;8.40;99.90;;;;;;5013817;28;20438;-72
2022/04/20 00:23:10;;;;;;;7.72;4.50;;;8.40;99.90;;;;;;5026730;28;20573;-72
2022/04/20 00:25:36;;;;;;;4.63;4.00;;;8.30;99.90;;;;;;5032688;28;20041;-73
2022/04/20 00:28:01;;;;;;;6.93;4.30;;;8.20;99.90;;;;;;5023323;28;20045;-74
2022/04/20 00:30:27;;;;;;;5.03;3.92;;;8.20;99.90;;;;;;5030023;28;20033;-73
2022/04/20 00:32:53;;;;;;;6.65;4.25;;;8.20;99.90;;;;;;5024452;28;20125;-74
2022/04/20 00:35:18;;;;;;;10.02;4.60;;;8.20;99.90;;;;;;5030937;28;20037;-73
2022/04/20 00:37:45;;;;;;;5.97;4.30;;;8.10;99.90;;;;;;5027749;28;20050;-74
2022/04/20 00:40:11;;;;;;;8.02;4.45;;;8.10;99.90;;;;;;5026864;28;20112;-73
2022/04/20 00:42:40;;;;;;;4.55;4.10;;;8.10;99.90;;;;;;5028485;28;20111;-74
2022/04/20 00:45:10;;;;;;;4.85;4.35;;;8.00;99.90;;;;;;5031099;28;20041;-74
2022/04/20 00:47:42;;;;;;;8.23;4.57;;;8.00;99.90;;;;;;5029196;28;20043;-73
2022/04/20 00:50:09;;;;;;;;;;;8.00;99.90;;;;;;5016279;28;20037;-74
2022/04/20 00:52:35;;;;;;;6.85;4.45;;;7.90;99.90;;;;;;5029461;28;20004;-73
2022/04/20 00:55:01;;;;;;;5.70;4.70;;;7.90;99.90;;;;;;5029960;28;20551;-74
2022/04/20 00:57:26;;;;;;;6.80;4.80;;;7.90;99.90;;;;;;5019698;28;20504;-73
2022/04/20 00:59:55;;;;;;;5.70;4.68;;;7.90;99.90;;;;;;5029074;28;20046;-73
2022/04/20 01:02:21;;;;;;;6.97;4.35;;;7.80;99.90;;;;;;5025195;28;20025;-74
2022/04/20 01:04:47;;;;;;;6.10;4.65;;;7.80;99.90;;;;;;5029476;28;20484;-73
2022/04/20 01:07:14;;;;;;;7.72;4.78;;;7.80;99.90;;;;;;5031299;28;20038;-73
2022/04/20 01:09:44;;;;;;;7.25;4.90;;;7.70;99.90;;;;;;5030138;28;20041;-73
2022/04/20 01:12:12;;;;;;;8.35;5.32;;;7.70;99.90;;;;;;5027235;28;20041;-73
2022/04/20 01:14:38;;;;;;;6.35;5.22;;;7.70;99.90;;;;;;5031508;28;20033;-73
2022/04/20 01:17:04;;;;;;;6.75;5.32;;;7.70;99.90;;;;;;5029230;28;20042;-73
2022/04/20 01:19:34;;;;;;;9.35;5.15;;;7.60;99.90;;;;;;5057496;28;20132;-73
2022/04/20 01:22:03;;;;;;;6.40;5.30;;;7.60;99.90;;;;;;5027142;28;20519;-73
2022/04/20 01:24:29;;;;;;;11.23;4.97;;;7.50;99.90;;;;;;5023299;28;20038;-73
2022/04/20 01:26:56;;;;;;;8.80;5.20;;;7.50;99.90;;;;;;5030004;28;20393;-73
2022/04/20 01:29:22;;;;;;;11.23;5.65;;;7.50;99.90;;;;;;5057599;28;20029;-73
2022/04/20 01:31:48;;;;;;;9.73;5.25;;;7.50;99.90;;;;;;5012021;28;20060;-72
2022/04/20 01:34:14;;;;;;;6.30;5.35;;;7.40;99.90;;;;;;5010105;28;20037;-72
2022/04/20 01:36:39;;;;;;;7.38;5.15;;;7.40;99.90;;;;;;5023558;28;20450;-72
2022/04/20 01:39:05;;;;;;;9.50;5.30;;;7.40;99.90;;;;;;5025726;28;20033;-72
2022/04/20 01:41:31;;;;;;;8.05;5.05;;;7.40;99.90;;;;;;5028479;28;20155;-72
2022/04/20 01:43:57;;;;;;;11.00;5.57;;;7.40;99.90;;;;;;5027723;28;20120;-72
2022/04/20 01:46:22;;;;;;;6.75;5.03;;;7.30;99.90;;;;;;5024653;28;20045;-73
2022/04/20 01:48:48;;;;;;;6.28;5.32;;;7.30;99.90;;;;;;5028934;28;20033;-72
2022/04/20 01:53:58;;;;;;;8.55;5.55;;;7.30;99.90;;;;;;5023096;28;20392;-72
2022/04/20 01:56:23;;;;;;;8.05;5.20;;;7.20;99.90;;;;;;5030827;28;20044;-72
2022/04/20 01:58:49;;;;;;;6.22;5.38;;;7.20;99.90;;;;;;5030850;28;20085;-72
2022/04/20 02:03:59;;;;;;;9.88;5.32;;;7.20;99.90;;;;;;5020612;28;20080;-73
2022/04/20 02:06:25;;;;;;;8.27;5.47;;;7.10;99.90;;;;;;5028875;28;20523;-73
2022/04/20 02:08:50;;;;;;;6.20;5.07;;;7.10;99.90;;;;;;5025811;28;20037;-73
2022/04/20 02:11:16;;;;;;;9.40;5.60;;;7.00;99.90;;;;;;5025784;28;20057;-73
2022/04/20 02:13:41;;;;;;;8.02;5.75;;;7.00;99.90;;;;;;5024032;28;20091;-73
2022/04/20 02:16:07;;;;;;;7.68;5.88;;;7.00;99.90;;;;;;5021438;28;20045;-74
2022/04/20 02:18:33;;;;;;;8.32;6.03;;;6.90;99.90;;;;;;5022892;28;20510;-73
2022/04/20 02:20:58;;;;;;;8.23;5.80;;;6.90;99.90;;;;;;5027208;28;20111;-73
2022/04/20 02:23:24;;;;;;;8.55;5.40;;;6.90;99.90;;;;;;5028983;28;20092;-73
2022/04/20 02:25:49;;;;;;;9.98;5.97;;;6.90;99.90;;;;;;5033522;28;20063;-73
2022/04/20 02:28:15;;;;;;;9.27;5.78;;;6.90;99.90;;;;;;5028598;28;20112;-73
2022/04/20 02:30:41;;;;;;;6.65;5.40;;;6.90;99.90;;;;;;5022545;28;20099;-73
2022/04/20 02:33:06;;;;;;;7.55;5.93;;;6.90;99.90;;;;;;5027705;28;20041;-74
2022/04/20 02:35:32;;;;;;;8.05;5.88;;;6.80;99.90;;;;;;5029413;28;20040;-73
2022/04/20 02:37:59;;;;;;;9.45;6.30;;;6.80;99.90;;;;;;5022138;28;20042;-72
2022/04/20 02:40:25;;;;;;;11.55;5.63;;;6.80;99.90;;;;;;5053929;28;20042;-72
2022/04/20 02:42:51;;;;;;;9.65;5.82;;;6.70;99.90;;;;;;5026157;28;20048;-72
2022/04/20 02:45:17;;;;;;;10.10;5.97;;;6.70;99.90;;;;;;5028513;28;20438;-72
2022/04/20 02:47:43;;;;;;;7.47;6.18;;;6.70;99.90;;;;;;5030247;28;20042;-72
2022/04/20 02:50:09;;;;;;;9.38;6.03;;;6.70;99.90;;;;;;5027847;28;20029;-73
2022/04/20 02:52:34;;;;;;;9.80;5.97;;;6.70;99.90;;;;;;5021891;28;20043;-74
2022/04/20 02:55:00;;;;;;;13.32;6.18;;;6.70;99.90;;;;;;5020813;28;20060;-73
2022/04/20 02:57:26;;;;;;;7.43;5.90;;;6.60;99.90;;;;;;5028429;28;20038;-73
2022/04/20 02:59:52;;;;;;;9.85;6.18;;;6.60;99.90;;;;;;5021362;28;20053;-72
2022/04/20 03:02:18;;;;;;;11.82;6.22;;;6.60;99.90;;;;;;5022840;28;20049;-72
2022/04/20 03:04:43;;;;;;;7.13;5.60;;;6.60;99.90;;;;;;5029524;28;20048;-72
2022/04/20 03:07:09;;;;;;;7.82;5.80;;;6.60;99.90;;;;;;5024318;28;20136;-72
2022/04/20 03:09:35;;;;;;;9.38;6.20;;;6.60;99.90;;;;;;5056090;28;20037;-72
2022/04/20 03:12:00;;;;;;;9.23;6.20;;;6.50;99.90;;;;;;5029147;28;20124;-72
2022/04/20 03:14:26;;;;;;;9.30;6.30;;;6.50;99.90;;;;;;5029657;28;20037;-72
2022/04/20 03:16:52;;;;;;;11.45;6.15;;;6.50;99.90;;;;;;5027607;28;20046;-73
2022/04/20 03:19:17;;;;;;;8.20;6.25;;;6.40;99.90;;;;;;5013451;28;20041;-73
2022/04/20 03:21:43;;;;;;;8.07;6.45;;;6.40;99.90;;;;;;5021628;28;20042;-73
2022/04/20 03:24:09;;;;;;;7.55;6.05;;;6.40;99.90;;;;;;5026033;28;20038;-73
2022/04/20 03:26:35;;;;;;;9.05;6.40;;;6.30;99.90;;;;;;5026815;28;20049;-73
2022/04/20 03:29:00;;;;;;;9.05;6.70;;;6.30;99.90;;;;;;5016373;28;20048;-74
2022/04/20 03:31:26;;;;;;;9.13;6.70;;;6.20;99.90;;;;;;5028850;28;20044;-72
2022/04/20 03:33:52;;;;;;;8.13;6.32;;;6.20;99.90;;;;;;5019890;28;20504;-72
2022/04/20 03:36:17;;;;;;;9.45;6.40;;;6.10;99.90;;;;;;5021691;28;20044;-72
2022/04/20 03:38:43;;;;;;;8.45;6.07;;;6.10;99.90;;;;;;5025129;28;20081;-72
2022/04/20 03:41:09;;;;;;;10.00;6.68;;;6.00;99.90;;;;;;5023318;28;20041;-72
2022/04/20 03:43:35;;;;;;;10.00;6.50;;;6.00;99.90;;;;;;5057889;28;20055;-72
2022/04/20 03:46:00;;;;;;;10.45;6.78;;;5.90;99.90;;;;;;5029282;28;20037;-73
2022/04/20 03:48:26;;;;;;;8.38;6.55;;;5.90;99.90;;;;;;5029729;28;20033;-73
2022/04/20 03:50:52;;;;;;;8.45;6.47;;;5.90;99.90;;;;;;5024731;28;20042;-72
2022/04/20 03:53:18;;;;;;;8.27;6.63;;;5.80;99.90;;;;;;5024622;28;20037;-72
2022/04/20 03:55:44;;;;;;;9.73;6.75;;;5.70;99.90;;;;;;5019864;28;20045;-72
2022/04/20 03:58:10;;;;;;;10.27;6.97;;;5.60;99.90;;;;;;5026078;28;20031;-72
2022/04/20 04:00:36;;;;;;;8.60;7.13;;;5.60;99.90;;;;;;5025107;28;20034;-72
2022/04/20 04:03:01;;;;;;;6.78;5.90;;;5.50;99.90;;;;;;5022395;28;20045;-72
2022/04/20 04:05:27;;;;;;;9.55;6.70;;;5.40;99.90;;;;;;5025310;28;20073;-72
2022/04/20 04:07:53;;;;;;;10.27;6.95;;;5.40;99.90;;;;;;5027429;28;20033;-72
2022/04/20 04:10:19;;;;;;;8.35;6.32;;;5.30;99.90;;;;;;5028166;28;20526;-72
2022/04/20 04:12:44;;;;;;;8.57;6.95;;;5.40;99.90;;;;;;5020966;28;20045;-72
2022/04/20 04:15:11;;;;;;;8.90;6.97;;;5.40;99.90;;;;;;5019882;28;20122;-72
2022/04/20 04:17:36;;;;;;;9.98;7.22;;;5.40;99.90;;;;;;5025496;28;20043;-72
2022/04/20 04:20:04;;;;;;;8.95;6.30;;;5.30;99.90;;;;;;5030847;28;20394;-72
2022/04/20 04:22:30;;;;;;;7.40;6.22;;;5.30;99.90;;;;;;5013571;28;20033;-72
2022/04/20 04:24:57;;;;;;;10.13;7.35;;;5.30;99.90;;;;;;5025549;28;20045;-72
2022/04/20 04:27:23;;;;;;;12.02;6.63;;;5.30;99.90;;;;;;5032769;28;20034;-72
2022/04/20 04:29:48;;;;;;;9.93;7.40;;;5.20;99.90;;;;;;5024537;28;20451;-72
2022/04/20 04:32:14;;;;;;;10.25;7.00;;;5.20;99.90;;;;;;5028056;28;20446;-72
2022/04/20 04:34:40;;;;;;;9.70;7.35;;;5.20;99.90;;;;;;5028727;28;20156;-72
2022/04/20 04:37:09;;;;;;;8.70;6.75;;;5.20;99.90;;;;;;5031625;28;20479;-72
2022/04/20 04:39:34;;;;;;;8.77;6.88;;;5.10;99.90;;;;;;5033540;28;20046;-72
2022/04/20 04:42:01;;;;;;;12.52;7.32;;;5.20;99.90;;;;;;5039534;28;20442;-72
2022/04/20 04:44:27;;;;;;;10.45;7.43;;;5.20;99.90;;;;;;5030589;28;20096;-72
2022/04/20 04:49:36;;;;;;;12.88;7.57;;;5.30;99.90;;;;;;5061386;28;20037;-72
2022/04/20 04:52:04;;;;;;;8.85;6.70;;;5.30;99.90;;;;;;5009796;28;20446;-72
2022/04/20 04:54:30;;;;;;;11.35;7.28;;;5.40;99.90;;;;;;5031645;28;20067;-72
2022/04/20 04:56:56;;;;;;;7.43;6.13;;;5.40;99.90;;;;;;5028722;28;20034;-72
2022/04/20 04:59:21;;;;;;;12.32;7.03;;;5.40;99.90;;;;;;5053258;28;20038;-72
2022/04/20 05:01:47;;;;;;;8.77;6.18;;;5.50;99.90;;;;;;5026762;28;20060;-72
2022/04/20 05:04:13;;;;;;;11.25;6.53;;;5.50;99.90;;;;;;5030260;28;20502;-72
2022/04/20 05:06:39;;;;;;;8.82;6.65;;;5.60;99.90;;;;;;5031386;28;20041;-72
2022/04/20 05:09:04;;;;;;;8.45;6.63;;;5.60;99.90;;;;;;5031885;28;20048;-72
2022/04/20 05:11:30;;;;;;;8.82;6.30;;;5.60;99.90;;;;;;5024008;28;20040;-72
2022/04/20 05:13:56;;;;;;;9.90;6.00;;;5.70;99.90;;;;;;5029608;28;20033;-72
2022/04/20 05:16:22;;;;;;;10.13;6.38;;;5.70;99.90;;;;;;5021736;28;20029;-72
2022/04/20 05:18:47;;;;;;;7.88;5.95;;;5.80;99.90;;;;;;5025175;28;20407;-72
2022/04/20 05:21:13;;;;;;;8.82;6.60;;;5.80;99.90;;;;;;5027024;28;20038;-72
2022/04/20 05:23:39;;;;;;;11.98;6.32;;;5.80;99.90;;;;;;5012387;28;20044;-72
2022/04/20 05:26:05;;;;;;;10.50;6.60;;;5.90;99.90;;;;;;5026756;28;20042;-73
2022/04/20 05:28:30;;;;;;;8.52;6.00;;;5.90;99.90;;;;;;5029597;28;20083;-73
2022/04/20 05:30:56;;;;;;;8.55;6.20;;;6.00;99.90;;;;;;5023128;28;20053;-73
2022/04/20 05:33:21;;;;;;;8.52;6.10;;;6.10;99.90;;;;;;5029833;28;20131;-73
2022/04/20 05:35:47;;;;;;;10.15;5.82;;;6.10;99.90;;;;;;5027095;28;20491;-72
2022/04/20 05:43:42;;;;;;;7.90;5.65;;;6.30;99.90;;;;;;5027073;28;20423;-72
2022/04/20 05:46:09;;;;;;;13.85;5.95;;;6.30;99.90;;;;;;5030147;28;20037;-72
2022/04/20 05:48:35;;;;;;;7.57;5.70;;;6.40;99.90;;;;;;5035314;28;20369;-72
2022/04/20 05:51:00;;;;;;;8.50;5.97;;;6.50;99.90;;;;;;5028651;28;20095;-72
2022/04/20 05:53:26;;;;;;;9.80;5.80;;;6.60;99.90;;;;;;5025206;28;20038;-72
2022/04/20 05:55:52;;;;;;;9.73;6.50;;;6.60;99.90;;;;;;5059869;28;20069;-72
2022/04/20 05:58:18;;;;;;;8.20;5.60;;;6.60;99.90;;;;;;5030851;28;20128;-72
2022/04/20 06:00:43;;;;;;;9.50;5.70;;;6.70;99.90;;;;;;5027153;28;20057;-72
2022/04/20 06:03:09;;;;;;;8.57;6.10;;;6.70;99.90;;;;;;5021312;28;20087;-72
2022/04/20 06:05:35;;;;;;;9.45;5.75;;;6.80;99.90;;;;;;5031464;28;20042;-72
2022/04/20 06:08:00;;;;;;;9.48;5.90;;;6.90;99.90;;;;;;5028196;28;20120;-72
2022/04/20 06:10:29;;;;;;;7.80;5.47;;;6.90;99.90;;;;;;5027772;28;20045;-72
2022/04/20 06:12:55;;;;;;;8.73;6.03;;;7.00;99.90;;;;;;5030969;28;20041;-72
2022/04/20 06:15:21;;;;;;;9.07;6.07;;;7.00;99.90;;;;;;5055912;28;20041;-72
2022/04/20 06:17:47;;;;;;;10.77;5.20;;;7.10;99.90;;;;;;5022961;28;20085;-72
2022/04/20 06:20:12;;;;;;;7.20;5.25;;;7.20;99.90;;;;;;5030059;28;20120;-72
2022/04/20 06:22:38;;;;;;;11.32;5.85;;;7.20;99.90;;;;;;5015018;28;20554;-72
2022/04/20 06:25:04;;;;;;;7.10;5.78;;;7.30;99.90;;;;;;5027941;28;20487;-72
2022/04/20 06:27:31;;;;;;;9.38;5.65;;;7.30;99.90;;;;;;5023082;28;20041;-72
2022/04/20 06:29:57;;;;;;;9.00;5.70;;;7.40;99.90;;;;;;5028772;28;20381;-72
2022/04/20 06:32:27;;;;;;;7.82;5.60;;;7.50;99.90;;;;;;5018634;28;20610;-72
2022/04/20 06:34:54;;;;;;;9.40;5.32;;;7.60;99.90;;;;;;5025682;28;20454;-72
2022/04/20 06:37:24;;;;;;;7.95;5.28;;;7.70;99.90;;;;;;5028743;28;20514;-72
2022/04/20 06:39:50;;;;;;;7.50;4.90;;;7.80;99.90;;;;;;5024242;28;20507;-72
2022/04/20 06:42:16;;;;;;;7.50;5.22;;;7.80;99.90;;;;;;5026737;28;20045;-72
2022/04/20 06:44:42;;;;;;;6.95;5.00;;;7.90;99.90;;;;;;5029348;28;20067;-72
2022/04/20 06:47:07;;;;;;;5.80;4.95;;;8.00;99.90;;;;;;5028503;28;20041;-72
2022/04/20 06:49:33;;;;;;;7.82;4.78;;;8.10;99.90;;;;;;5028690;28;20049;-72
2022/04/20 07:00:12;;;;;;;7.53;4.60;;;8.50;99.90;;;;;;5024298;28;20128;-72
2022/04/20 07:02:38;;;;;;;5.22;4.25;;;8.70;99.90;;;;;;5031989;28;20041;-72
2022/04/20 07:05:05;;;;;;;7.80;4.18;;;8.80;99.90;;;;;;5026396;28;20562;-72
2022/04/20 07:07:31;;;;;;;6.68;4.45;;;9.00;99.90;;;;;;5010948;28;20452;-73
2022/04/20 07:09:56;;;;;;;8.02;4.00;;;9.10;99.90;;;;;;5023695;28;20131;-72
2022/04/20 07:12:22;;;;;;;5.45;3.97;;;9.20;99.90;;;;;;5040475;28;20128;-73
2022/04/20 07:14:48;;;;;;;6.07;4.15;;;9.40;99.90;;;;;;5023341;28;20056;-73
2022/04/20 07:17:14;;;;;;;7.13;4.40;;;9.50;99.90;;;;;;5023352;28;20603;-73
2022/04/20 07:19:39;;;;;;;7.13;3.88;;;9.60;99.90;;;;;;5019239;28;20096;-73
2022/04/20 07:22:05;;;;;;;6.63;3.90;;;9.80;99.90;;;;;;5027860;28;20041;-73
2022/04/20 07:24:31;;;;;;;5.45;3.90;;;9.90;99.90;;;;;;5030507;28;20072;-73
2022/04/20 07:26:57;;;;;;;6.18;3.90;;;10.00;99.90;;;;;;5027475;28;20041;-73
2022/04/20 07:29:22;;;;;;;10.52;3.70;;;10.10;99.90;;;;;;5028028;28;20112;-73
2022/04/20 07:31:48;;;;;;;5.07;3.80;;;10.20;99.90;;;;;;5024374;28;20037;-73
2022/04/20 07:34:13;;;;;;;7.43;4.40;;;10.30;99.90;;;;;;5024488;28;20099;-73
2022/04/20 07:36:39;;;;;;;7.55;3.90;;;10.40;99.90;;;;;;5028891;28;20068;-73
2022/04/20 07:39:04;;;;;;;6.05;3.88;;;10.50;99.90;;;;;;5024872;28;20104;-73
2022/04/20 07:41:30;;;;;;;7.50;4.00;;;10.60;99.90;;;;;;5020276;28;20064;-73
2022/04/20 07:43:56;;;;;;;4.97;3.47;;;10.70;99.50;;;;;;5030712;28;20056;-72
2022/04/20 07:46:22;;;;;;;5.18;3.50;;;10.80;99.00;;;;;;5028654;28;20030;-72
2022/04/20 07:48:48;;;;;;;8.57;4.10;;;10.90;96.20;;;;;;5028512;28;20430;-72
2022/04/20 07:51:17;;;;;;;7.78;4.07;;;11.00;96.70;;;;;;5026483;28;20094;-73
2022/04/20 07:53:42;;;;;;;5.65;3.25;;;11.10;95.60;;;;;;5008263;28;20041;-73
2022/04/20 07:56:08;;;;;;;4.95;3.58;;;11.30;95.90;;;;;;5033037;28;20060;-72
2022/04/20 07:58:34;;;;;;;6.93;3.33;;;11.40;94.20;;;;;;5015080;28;20116;-73
2022/04/20 08:00:59;;;;;;;4.03;3.10;;;11.50;93.90;;;;;;5026993;28;20061;-73
2022/04/20 08:03:25;;;;;;;3.83;3.20;;;11.70;91.00;;;;;;5033392;28;20045;-72
2022/04/20 08:05:55;;;;;;;4.32;2.90;;;11.80;91.10;;;;;;5033232;28;20144;-73
2022/04/20 08:08:23;;;;;;;7.35;3.08;;;11.90;86.60;;;;;;5030246;28;20504;-73
2022/04/20 08:10:48;;;;;;;4.07;2.80;;;12.00;86.80;;;;;;5032520;28;20406;-72
2022/04/20 08:15:59;;;;;;;6.53;2.67;;;12.30;85.60;;;;;;5034496;28;20054;-73
2022/04/20 08:18:26;;;;;;;5.97;2.70;;;12.50;81.50;;;;;;5032831;28;20041;-73
2022/04/20 08:20:52;;;;;;;8.15;2.58;;;12.60;79.90;;;;;;5032123;28;20091;-72
2022/04/20 08:23:18;;;;;;;4.45;2.50;;;12.70;79.20;;;;;;5029174;28;20042;-73
2022/04/20 08:25:44;;;;;;;4.28;2.53;;;12.90;75.20;;;;;;5015721;28;20039;-72
2022/04/20 08:28:11;;;;;;;8.15;2.90;;;13.00;71.40;;;;;;5012625;28;20050;-73
2022/04/20 08:30:38;;;;;;;6.13;2.75;;;13.00;72.00;;;;;;5024371;28;20033;-72
2022/04/20 08:33:07;;;;;;;4.50;3.20;;;13.20;68.60;;;;;;5031817;28;20060;-72
2022/04/20 08:35:37;;;;;;;4.47;2.85;;;13.20;69.20;;;;;;5032304;28;20542;-72
2022/04/20 08:38:04;;;;;;;6.35;2.85;;;13.30;71.40;;;;;;5013071;28;20046;-73
2022/04/20 08:40:31;;;;;;;6.22;3.17;;;13.50;69.60;;;;;;5011068;28;20487;-73
2022/04/20 08:43:01;;;;;;;3.70;2.80;;;13.60;66.10;;;;;;5030262;28;20045;-73
2022/04/20 08:45:28;;;;;;;8.55;3.13;;;13.80;67.60;;;;;;5052613;28;20686;-73
2022/04/20 08:47:56;;;;;;;3.22;2.50;;;13.90;64.70;;;;;;5031732;28;20122;-73
2022/04/20 08:50:24;;;;;;;4.25;2.50;;;14.00;68.00;;;;;;5029850;28;20480;-73
2022/04/20 08:52:51;;;;;;;5.20;2.88;;;14.10;65.00;;;;;;5031398;28;20053;-72
2022/04/20 08:55:18;;;;;;;5.22;2.70;;;14.20;65.70;;;;;;5052668;28;20458;-73
2022/04/20 08:57:49;;;;;;;5.35;2.67;;;14.40;67.20;;;;;;5031060;28;20949;-72
2022/04/20 09:00:21;;;;;;;2.78;2.40;;;14.60;62.10;;;;;;5008597;28;20480;-73
2022/04/20 09:02:55;;;;;;;3.90;2.05;;;14.70;60.30;;;;;;5031357;28;20071;-73
2022/04/20 09:05:21;;;;;;;3.65;2.20;;;14.80;58.90;;;;;;5003562;28;20046;-72
2022/04/20 09:07:47;;;;;;;5.35;2.70;;;14.90;58.90;;;;;;5055517;28;20416;-73
2022/04/20 09:10:13;;;;;;;5.88;2.25;;;15.00;57.90;;;;;;5031479;28;20037;-73
2022/04/20 09:12:43;;;;;;;3.58;2.40;;;15.10;56.80;;;;;;5031720;28;20470;-73
2022/04/20 09:15:16;;;;;;;3.90;2.20;;;15.20;58.00;;;;;;5031830;28;20403;-72
2022/04/20 09:17:45;;;;;;;4.18;2.40;;;15.40;55.80;;;;;;5030079;28;20033;-73
2022/04/20 09:20:18;;;;;;;7.15;1.98;;;15.50;55.60;;;;;;5060725;28;20037;-73
2022/04/20 09:23:05;;;;;;;2.38;1.55;;;15.70;51.20;;;;;;5030965;28;20056;-72
2022/04/20 09:25:38;;;;;;;2.63;1.70;;;15.70;49.70;;;;;;5020167;28;20437;-73
2022/04/20 09:28:06;;;;;;;5.22;1.65;;;15.80;49.80;;;;;;5062778;28;20041;-72
2022/04/20 09:30:38;;;;;;;4.97;1.65;;;15.90;47.70;;;;;;5021717;28;20438;-73
2022/04/20 09:33:06;;;;;;;1.52;1.27;;;15.80;44.60;;;;;;5030811;28;20124;-73
2022/04/20 09:35:44;;;;;;;1.55;1.45;;;15.80;47.40;;;;;;5057968;28;20546;-73
2022/04/20 09:38:10;;;;;;;2.33;1.50;;;16.00;47.80;;;;;;5031469;28;20041;-73
2022/04/20 09:40:38;;;;;;;4.22;1.60;;;16.00;45.90;;;;;;5031066;28;20079;-73
2022/04/20 09:43:18;;;;;;;1.67;1.45;;;16.10;44.50;;;;;;5021607;28;20038;-73
2022/04/20 09:45:44;;;;;;;2.58;1.40;;;16.10;46.50;;;;;;5030718;28;20132;-68
2022/04/20 09:51:13;;;;;;;3.25;1.50;;;16.40;46.90;;;;;;5030960;28;20092;-71
2022/04/20 09:53:40;;;;;;;3.55;1.80;;;16.60;45.80;;;;;;5025511;28;20037;-72
2022/04/20 09:56:22;;;;;;;1.98;1.80;;;16.90;46.80;;;;;;5052743;28;20033;-72
2022/04/20 09:59:01;;;;;;;5.43;1.80;;;16.90;45.40;;;;;;5027958;28;20053;-72
2022/04/20 10:01:35;;;;;;;4.30;1.60;;;17.00;42.70;;;;;;5061963;28;20319;-72
2022/04/20 10:04:03;;;;;;;2.47;1.95;;;17.30;43.60;;;;;;5032437;28;20049;-72
2022/04/20 10:06:29;;;;;;;2.35;1.80;;;17.40;43.00;;;;;;5030646;28;20029;-72
2022/04/20 10:08:56;;;;;;;1.55;1.35;;;17.50;43.20;;;;;;5058487;28;20033;-72
2022/04/20 10:11:22;;;;;;;5.32;1.77;;;17.60;41.30;;;;;;5054819;28;20725;-70
2022/04/20 10:16:52;;;;;;;3.70;1.80;;;17.80;42.00;;;;;;5027032;28;20112;-72
2022/04/20 10:19:28;;;;;;;5.28;1.67;;;17.80;41.70;;;;;;5026508;28;20026;-72
2022/04/20 10:21:55;;;;;;;3.97;1.80;;;18.00;41.50;;;;;;5030272;28;20037;-72
2022/04/20 10:24:29;;;;;;;4.45;2.10;;;18.10;41.60;;;;;;5030400;28;20057;-73
2022/04/20 10:27:15;;;;;;;2.17;1.70;;;18.20;42.60;;;;;;5021069;28;20034;-72
2022/04/20 10:29:47;;;;;;;3.70;1.80;;;18.40;41.70;;;;;;5059769;28;20121;-72
2022/04/20 10:32:19;;;;;;;2.60;1.90;;;18.40;41.90;;;;;;5029164;28;20041;-72
2022/04/20 10:34:45;;;;;;;2.88;1.92;;;18.50;41.10;;;;;;5022314;28;20395;-72
2022/04/20 10:37:28;;;;;;;3.38;2.03;;;18.60;43.70;;;;;;5027790;28;20408;-72
2022/04/20 10:40:18;;;;;;;2.58;2.10;;;18.80;43.20;;;;;;5030338;28;20099;-72
2022/04/20 10:42:44;;;;;;;5.00;2.22;;;18.70;44.80;;;;;;5010620;28;20041;-72
2022/04/20 10:45:16;;;;;;;2.67;2.20;;;18.80;43.00;;;;;;5029559;28;20376;-72
2022/04/20 10:47:43;;;;;;;2.95;2.10;;;18.90;41.60;;;;;;5029368;28;20404;-73
2022/04/20 10:50:17;;;;;;;3.70;2.03;;;18.90;44.30;;;;;;5030038;28;20384;-72
2022/04/20 10:52:56;;;;;;;3.65;2.10;;;18.90;44.30;;;;;;5014254;28;20386;-72
2022/04/20 10:55:30;;;;;;;2.42;2.10;;;19.00;42.10;;;;;;5022073;28;20411;-72
2022/04/20 10:58:01;;;;;;;4.65;1.73;;;18.90;42.10;;;;;;5012822;28;20069;-72
2022/04/20 11:00:33;;;;;;;4.57;2.10;;;19.00;42.50;;;;;;5046314;28;20040;-72
2022/04/20 11:03:03;;;;;;;4.13;2.10;;;19.10;41.30;;;;;;5028791;28;20087;-72
2022/04/20 11:05:30;;;;;;;4.40;2.10;;;19.20;42.90;;;;;;5029130;28;20068;-73
2022/04/20 11:08:14;;;;;;;3.17;2.00;;;19.20;42.20;;;;;;5012122;28;20041;-72
2022/04/20 11:10:42;;;;;;;5.50;2.20;;;19.30;41.20;;;;;;5025914;28;20041;-72
2022/04/20 11:19:11;;;;;;;3.42;2.17;;;19.70;41.60;;;;;;5026836;28;20045;-72
2022/04/20 11:21:37;;;;;;;;;;;19.70;42.00;;;;;;5029890;28;20045;-72
2022/04/20 11:24:08;;;;;;;5.13;1.67;;;19.70;40.80;;;;;;5063019;28;19921;-72
2022/04/20 11:26:55;;;;;;;2.70;1.80;;;19.80;42.20;;;;;;5021636;28;20089;-72
2022/04/20 11:29:23;;;;;;;21.55;2.22;;;20.10;41.10;;;;;;5019198;28;20037;-72
2022/04/20 11:32:08;;;;;;;6.25;1.88;;;20.20;41.10;;;;;;5059148;28;20068;-73
2022/04/20 11:34:36;;;;;;;4.30;1.95;;;20.20;40.20;;;;;;5029363;28;20044;-73
2022/04/20 11:37:06;;;;;;;4.72;1.80;;;20.40;40.50;;;;;;5029835;28;20037;-73
2022/04/20 11:39:32;;;;;;;1.83;1.73;;;20.30;39.90;;;;;;5028781;28;20195;-72
2022/04/20 11:41:59;;;;;;;4.55;2.00;;;20.30;39.20;;;;;;5026246;28;20144;-70
2022/04/20 11:44:26;;;;;;;5.90;1.83;;;20.20;37.90;;;;;;5027125;28;20044;-70
2022/04/20 11:46:57;;;;;;;2.40;1.60;;;20.20;38.90;;;;;;5030179;28;20045;-70
2022/04/20 11:49:30;;;;;;;12.57;2.03;;;20.20;38.50;;;;;;5028113;28;20037;-73
2022/04/20 11:51:57;;;;;;;36.80;3.33;;;20.60;40.40;;;;;;5012734;28;20049;-70
2022/04/20 11:54:24;;;;;;;4.13;1.70;;;20.60;40.10;;;;;;5017814;28;20132;-70
2022/04/20 11:56:50;;;;;;;7.10;1.70;;;20.60;39.90;;;;;;5020696;28;20041;-72
2022/04/20 11:59:18;;;;;;;4.03;1.40;;;20.50;40.20;;;;;;5028699;28;20395;-74
2022/04/20 12:01:44;;;;;;;3.03;1.50;;;20.60;40.20;;;;;;5029916;28;20042;-73
2022/04/20 12:04:21;;;;;;;2.75;1.40;;;20.70;39.00;;;;;;5020696;28;20050;-73
2022/04/20 12:06:55;;;;;;;2.28;1.50;;;20.80;37.80;;;;;;5026353;28;20038;-73
2022/04/20 12:09:22;;;;;;;3.72;1.33;;;20.80;36.00;;;;;;5054792;28;20084;-72
2022/04/20 12:11:52;;;;;;;5.47;1.55;;;20.80;37.50;;;;;;5012088;28;20042;-72
2022/04/20 12:14:19;;;;;;;2.95;1.40;;;21.00;38.70;;;;;;5059581;28;20042;-72
2022/04/20 12:16:46;;;;;;;4.13;1.55;;;21.10;37.00;;;;;;5028681;28;20145;-72
2022/04/20 12:19:12;;;;;;;17.52;1.90;;;21.30;36.80;;;;;;5029606;28;20083;-73
2022/04/20 12:21:47;;;;;;;13.90;1.80;;;21.40;37.00;;;;;;5028951;28;20064;-74
2022/04/20 12:24:25;;;;;;;5.80;1.65;;;21.30;35.60;;;;;;5025525;28;20042;-72
2022/04/20 12:26:53;;;;;;;15.02;1.55;;;21.20;36.90;;;;;;5029381;28;20099;-72
2022/04/20 12:29:22;;;;;;;5.25;1.33;;;21.20;36.80;;;;;;5012349;28;20517;-72
2022/04/20 12:31:49;;;;;;;2.33;1.30;;;21.50;38.00;;;;;;5027417;28;20041;-73
2022/04/20 12:34:17;;;;;;;1.00;1.00;;;21.50;35.60;;;;;;5026631;28;20042;-73
2022/04/20 12:36:54;;;;;;;3.08;1.17;;;21.50;36.80;;;;;;5029340;28;20044;-73
2022/04/20 12:39:27;;;;;;;2.25;1.10;;;21.60;35.20;;;;;;5025843;28;20493;-72
2022/04/20 12:41:58;;;;;;;12.43;1.65;;;21.60;37.00;;;;;;5062863;28;20049;-73
2022/04/20 12:44:39;;;;;;;3.95;1.35;;;21.60;37.30;;;;;;5029474;28;20037;-75
2022/04/20 12:47:10;;;;;;;3.88;1.23;;;21.70;35.30;;;;;;5031857;28;20037;-73
2022/04/20 12:49:44;;;;;;;3.50;1.27;;;21.60;35.60;;;;;;5046288;28;20065;-74
2022/04/20 12:52:12;;;;;;;3.67;1.30;;;21.50;38.00;;;;;;5031175;28;20149;-73
2022/04/20 12:54:39;;;;;;;12.65;1.80;;;21.50;35.90;;;;;;5032863;28;20038;-73
2022/04/20 13:03:13;;;;;;;3.10;1.30;;;21.80;36.10;;;;;;5065645;28;20065;-72
2022/04/20 13:05:42;;;;;;;5.78;1.70;;;21.90;36.90;;;;;;5011726;28;20046;-73
2022/04/20 13:08:10;;;;;;;2.47;1.20;;;21.90;35.90;;;;;;5031975;28;20037;-74
2022/04/20 13:10:37;;;;;;;2.15;1.50;;;22.00;35.70;;;;;;5028714;28;20045;-73
2022/04/20 13:13:04;;;;;;;1.85;1.27;;;22.00;35.60;;;;;;5031535;28;20053;-74
2022/04/20 13:15:29;;;;;;;6.25;1.50;;;21.80;36.30;;;;;;5029863;28;20037;-73
2022/04/20 13:17:57;;;;;;;16.27;2.28;;;21.90;37.00;;;;;;5028108;28;20068;-74
2022/04/20 13:20:24;;;;;;;6.75;1.98;;;21.90;35.60;;;;;;5028971;28;20053;-73
2022/04/20 13:22:49;;;;;;;9.65;1.88;;;21.70;36.30;;;;;;5030476;28;20044;-73
2022/04/20 13:27:59;;;;;;;5.97;1.83;;;21.90;37.90;;;;;;5025804;28;20053;-72
2022/04/20 13:30:27;;;;;;;3.05;2.08;;;21.90;37.10;;;;;;5031444;28;20064;-72
2022/04/20 13:32:56;;;;;;;2.38;1.50;;;22.10;37.40;;;;;;5025896;28;20100;-73
2022/04/20 13:35:24;;;;;;;2.00;1.80;;;22.20;36.60;;;;;;5031360;28;20037;-73
2022/04/20 13:37:50;;;;;;;9.45;2.05;;;22.40;35.10;;;;;;5030817;28;20042;-73